CDT,Max TemperatureF,Mean TemperatureF,Min TemperatureF,Max Dew PointF,MeanDew PointF,Min DewpointF,Max Humidity, Mean Humidity, Min Humidity, Max Sea Level PressureIn, Mean Sea Level PressureIn, Min Sea Level PressureIn, Max VisibilityMiles, Mean VisibilityMiles, Min VisibilityMiles, Max Wind SpeedMPH, Mean Wind SpeedMPH, Max Gust SpeedMPH,PrecipitationIn, CloudCover, Events, WindDirDegrees
2011-10-1,73,55,37,36,32,28,87,51,19,30.26,30.20,30.10,10,9,4,17,10,23,0.00,0,,149
2011-10-2,84,64,44,37,34,27,71,39,12,30.11,30.07,30.02,10,10,7,14,8,21,0.00,0,,158
2011-10-3,84,65,46,39,34,27,76,37,12,30.12,30.08,30.04,10,10,10,18,8,25,0.00,0,,155
2011-10-4,84,66,48,45,38,36,71,37,18,30.09,30.01,29.92,10,10,10,18,9,25,0.00,0,,142
2011-10-5,87,69,51,46,40,30,82,40,13,29.98,29.94,29.89,10,10,10,17,8,31,0.00,0,,146
2011-10-6,82,70,57,39,36,32,51,32,17,29.95,29.90,29.80,10,10,7,24,14,38,0.00,0,Rain,148
2011-10-7,82,73,64,64,50,37,94,46,31,29.81,29.74,29.68,10,10,5,32,17,40,0.33,3,Rain-Thunderstorm,176
2011-10-8,62,60,57,57,55,52,94,81,72,30.12,29.98,29.83,10,10,7,9,4,,0.12,7,Rain,263
2011-10-9,78,66,55,61,55,48,94,76,44,30.19,30.12,30.01,10,10,10,12,6,18,0.04,5,Rain,85
2011-10-10,69,63,57,57,51,46,94,69,46,30.01,29.91,29.83,10,10,7,16,10,22,0.07,2,Rain,169
2011-10-11,78,64,51,52,47,37,88,59,23,29.82,29.76,29.71,10,10,10,15,9,21,0.00,0,,175
2011-10-12,64,58,51,59,54,48,94,85,68,29.73,29.70,29.68,10,10,10,9,5,,0.16,4,Rain-Thunderstorm,176
2011-10-13,62,54,46,46,43,36,93,72,39,29.76,29.72,29.68,10,10,5,22,11,33,0.10,2,Rain-Thunderstorm,308
2011-10-14,55,50,42,46,44,39,93,85,63,29.90,29.80,29.71,10,10,7,23,11,29,0.07,6,Rain,307
2011-10-15,57,46,35,39,37,34,100,73,44,29.93,29.89,29.84,10,10,10,14,8,21,0.00,2,Rain,282
2011-10-16,53,45,37,39,35,28,100,69,38,29.95,29.91,29.87,10,10,10,25,12,32,0.00,0,,288
2011-10-17,57,45,33,34,29,21,93,60,25,29.95,29.92,29.89,10,10,7,28,12,34,0.00,0,,295
2011-10-18,48,40,33,32,26,16,81,59,29,30.13,30.06,29.96,10,10,7,25,14,31,0.00,2,,334
2011-10-19,46,35,24,30,27,21,87,72,50,30.19,30.14,30.11,10,10,7,16,9,22,0.00,4,,347
2011-10-20,51,36,21,36,28,21,100,75,41,30.10,30.04,29.99,10,10,3,10,5,16,0.00,0,,324
2011-10-21,64,46,28,39,33,27,100,70,32,30.06,29.98,29.95,10,10,10,17,4,24,0.00,0,,261
2011-10-22,62,45,28,43,35,28,100,68,32,30.13,30.04,29.87,10,7,0,12,4,16,0.01,2,Fog-Rain-Thunderstorm,198
2011-10-23,59,48,35,45,40,32,93,73,44,29.95,29.85,29.80,10,10,10,17,7,22,0.00,1,Rain,271
2011-10-24,55,42,30,41,37,30,100,79,54,30.00,29.97,29.95,10,10,3,9,3,,0.00,2,,316
2011-10-25,53,48,42,41,36,32,87,67,44,30.03,29.93,29.86,10,10,10,22,11,25,0.00,4,,36
2011-10-26,48,40,32,39,36,30,93,79,54,30.13,30.08,30.05,10,10,5,18,4,16,0.00,6,Rain,318
2011-10-27,51,37,23,34,26,19,100,71,28,30.08,30.05,30.02,10,10,7,9,5,,0.00,1,,256
2011-10-28,53,40,28,32,25,19,93,57,26,30.08,30.04,29.99,10,10,10,20,8,29,0.00,2,,282
2011-10-29,53,37,21,28,21,14,100,59,21,30.06,29.95,29.82,10,10,4,14,6,18,0.00,1,,153
2011-10-30,44,42,39,39,34,21,93,74,42,29.99,29.86,29.78,10,10,10,18,11,24,0.00,7,Rain,302
2011-10-31,60,42,24,34,27,21,100,64,22,30.01,29.92,29.81,10,10,7,13,6,20,0.00,1,,186